Terminal Aerodrome Forecast
Issued by NWS Grand Forks, ND

Home | Current Version | Previous Version | Graphics & Text | Print | Product List | Glossary On
Versions: 1 2 3 4 5 6 7 8 9 10 11 12 13 14 15 16
000
FTUS43 KFGF 220147 AAA
TAFGFK
TAF AMD
KGFK 220147Z 2202/2224 VRB05KT P6SM BKN200
     FM221300 27007KT P6SM SCT150
     FM221400 30010KT P6SM SCT150
     FM221900 31015G23KT P6SM SCT200=

USA.gov is the U.S. government's official web portal to all federal, state and local government web resources and services.